Quick Links (Output Below):   Max & Min Temps   /   Climate Reports   /   Zone Forecasts
River Forecasts   /   Forestry Forecasts   /   Aviation Forecasts   /   Radars   /   Features

Terminal Aerodrome Forecast (Jonesboro)

Pick a Site:
Arkadelphia | El Dorado | Fayetteville | Fort Smith | Harrison | Highfill | Hot Springs | Jonesboro
Little Rock | Monticello | Mountain Home | Pine Bluff | Texarkana
 Forecast 

KJBR 300531Z 3006/3106 VRB03KT P6SM SCT100 BKN250
      TEMPO 3009/3013 4SM BR
     FM301300 20005KT P6SM SCT015 SCT040
     FM301700 25007KT P6SM VCTS BKN040CB
      TEMPO 3018/3022 3SM TSRA BKN025CB
     FM310100 23003KT P6SM BKN250=


 Latest METARs (Observations) 
How to Decode METARs
07Z KJBR 300653Z AUTO 26004KT 10SM CLR 22/21 A2996 RMK AO2 SLP143
         T02220211
         
06Z KJBR 300553Z AUTO 00000KT 10SM FEW075 22/21 A2998 RMK AO2 SLP148
         T02220211 10250 20222 402830222 53004
         
05Z KJBR 300453Z AUTO 00000KT 10SM CLR 23/21 A2997 RMK AO2 SLP146
         T02280211
         
04Z KJBR 300353Z AUTO 00000KT 10SM CLR 23/21 A2996 RMK AO2 SLP144
         T02280211
         
03Z KJBR 300253Z AUTO 36003KT 10SM CLR 23/21 A2997 RMK AO2 SLP144
         T02280211 53014
         
02Z KJBR 300153Z AUTO 17005KT 10SM FEW100 24/22 A2994 RMK AO2 SLP135
         T02390217
         
01Z KJBR 300053Z AUTO 00000KT 10SM CLR 24/21 A2991 RMK AO2 SLP127
         T02440211
         
00Z KJBR 292353Z AUTO 33003KT 10SM FEW085 SCT110 24/21 A2992 RMK AO2
         SLP130 60000 T02440211 10283 20244 58004
         
***** Today's Observations (Above) *****


23Z KJBR 292253Z AUTO 30007KT 10SM CLR 26/21 A2994 RMK AO2 LTG DSNT
         ALQDS RAE2156B04E22 SLP136 P0000 T02560211
         
22Z KJBR 292153Z AUTO 25008KT 10SM -RA BKN021 BKN031 28/25 A2994 RMK
         AO2 LTG DSNT N AND S AND NW RAB38 SLP134 P0000 T02780250
         
***** Yesterday's Observations (Above) *****


Back to Main Page
http://www.srh.noaa.gov/lzk/qfcst.php

USA.gov is the U.S. government's official web portal to all federal, state and local government web resources and services.